Time;durP1;ratioP1;P1;durP2;ratioP2;P2;SDS_P1;SDS_P2;PMS_P1;PMS_P2;Temp;Humidity;BMP_temperature;BMP_pressure;BME280_temperature;BME280_humidity;BME280_pressure;Samples;Min_cycle;Max_cycle;Signal;HPM_P1;HPM_P2
2022/08/22 00:03:14;;;;;;;7.90;7.00;;;;;;;20.28;78.98;99739.27;130144;1268;108792;-69
2022/08/22 00:06:26;;;;;;;6.80;6.20;;;;;;;20.22;79.04;99739.81;130142;1268;107672;-69
2022/08/22 00:09:41;;;;;;;6.10;5.50;;;;;;;20.16;78.90;99739.38;130130;1268;108809;-69
2022/08/22 00:12:53;;;;;;;6.30;5.70;;;;;;;20.09;78.89;99743.02;130146;1268;108750;-69
2022/08/22 00:16:02;;;;;;;;;;;;;;;20.05;79.04;99743.88;130288;1267;108895;-69
2022/08/22 00:19:17;;;;;;;6.50;5.80;;;;;;;20.04;79.01;99739.30;130115;1271;109609;-69
2022/08/22 00:22:32;;;;;;;7.30;6.60;;;;;;;20.03;78.95;99742.63;130204;1268;108706;-69
2022/08/22 00:25:48;;;;;;;8.00;7.10;;;;;;;19.98;78.87;99741.73;130244;1268;108884;-69
2022/08/22 00:29:01;;;;;;;9.30;6.70;;;;;;;19.92;78.86;99748.02;130169;1268;108566;-69
2022/08/22 00:32:14;;;;;;;8.20;6.90;;;;;;;19.85;78.75;99746.77;130180;1268;108911;-68
2022/08/22 00:35:24;;;;;;;6.20;5.40;;;;;;;19.75;78.90;99742.21;130126;1268;107028;-69
2022/08/22 00:38:33;;;;;;;6.60;5.90;;;;;;;19.71;79.02;99739.58;130211;1267;110276;-69
2022/08/22 00:42:10;;;;;;;7.00;6.20;;;;;;;19.70;79.05;99736.25;130186;1268;109506;-69
2022/08/22 00:45:38;;;;;;;7.30;6.50;;;;;;;19.66;78.97;99743.49;130179;1268;110262;-69
2022/08/22 00:49:08;;;;;;;8.20;7.20;;;;;;;19.63;79.13;99742.82;130154;1268;108564;-69
2022/08/22 00:52:34;;;;;;;6.30;5.70;;;;;;;19.60;79.10;99738.84;130186;1268;108126;-69
2022/08/22 00:55:58;;;;;;;8.90;5.90;;;;;;;19.57;79.01;99741.51;130164;1268;108566;-68
2022/08/22 00:59:17;;;;;;;6.30;5.70;;;;;;;19.52;79.09;99745.02;130208;1268;107318;-69
2022/08/22 01:02:32;;;;;;;7.10;6.40;;;;;;;19.53;79.02;99745.80;130232;1268;108198;-69
2022/08/22 01:05:50;;;;;;;8.90;7.20;;;;;;;19.54;79.25;99745.20;130124;1268;107158;-69
2022/08/22 01:09:09;;;;;;;7.90;6.70;;;;;;;19.55;79.21;99749.23;130203;1268;108754;-69
2022/08/22 01:12:31;;;;;;;6.80;6.10;;;;;;;19.55;79.27;99751.23;130042;1268;109592;-70
2022/08/22 01:15:39;;;;;;;11.40;6.30;;;;;;;19.55;79.37;99751.61;130003;1268;107053;-70
2022/08/22 01:19:00;;;;;;;10.10;7.70;;;;;;;19.56;79.60;99749.52;130221;1268;108860;-69
2022/08/22 01:22:48;;;;;;;10.90;9.50;;;;;;;19.58;80.14;99752.79;130248;1268;108613;-69
2022/08/22 01:26:41;;;;;;;15.40;8.30;;;;;;;19.53;81.67;99757.48;130207;1268;108804;-72
2022/08/22 01:30:18;;;;;;;10.50;7.00;;;;;;;19.33;82.41;99762.52;130170;1268;109547;-68
2022/08/22 01:33:47;;;;;;;8.60;7.50;;;;;;;19.31;82.61;99763.91;130246;1268;109149;-70
2022/08/22 01:37:21;;;;;;;10.10;8.90;;;;;;;19.36;82.78;99761.79;130156;1268;109683;-68
2022/08/22 01:40:53;;;;;;;11.40;8.20;;;;;;;19.41;83.17;99758.70;130248;1267;109650;-70
2022/08/22 01:44:22;;;;;;;8.50;7.60;;;;;;;19.46;83.34;99761.73;130182;1268;107126;-68
2022/08/22 01:47:34;;;;;;;8.20;7.00;;;;;;;19.44;83.53;99764.58;130159;1268;108814;-69
2022/08/22 01:50:45;;;;;;;8.50;7.50;;;;;;;19.44;84.15;99763.35;130177;1268;109605;-70
2022/08/22 01:54:00;;;;;;;10.70;8.20;;;;;;;19.38;84.92;99764.17;130145;1268;108625;-69
2022/08/22 01:57:10;;;;;;;14.10;8.20;;;;;;;19.31;84.97;99763.63;130162;1267;108716;-69
2022/08/22 02:00:20;;;;;;;10.80;7.90;;;;;;;19.30;85.24;99765.01;130193;1268;108570;-70
2022/08/22 02:03:31;;;;;;;8.00;7.20;;;;;;;19.32;85.95;99763.08;130233;1268;108902;-70
2022/08/22 02:06:45;;;;;;;11.60;8.20;;;;;;;19.27;86.67;99763.33;130231;1267;108656;-70
2022/08/22 02:10:08;;;;;;;13.60;9.10;;;;;;;19.26;86.09;99761.97;130175;1268;108957;-70
2022/08/22 02:13:30;;;;;;;10.00;8.30;;;;;;;19.23;86.16;99761.12;130119;1268;108878;-69
2022/08/22 02:16:40;;;;;;;8.60;7.80;;;;;;;19.17;86.71;99761.25;130185;1268;108958;-70
2022/08/22 02:19:56;;;;;;;10.10;9.10;;;;;;;19.11;87.49;99756.52;130187;1268;108643;-70
2022/08/22 02:23:09;;;;;;;10.00;8.70;;;;;;;19.06;87.26;99754.98;130186;1268;107416;-71
2022/08/22 02:26:20;;;;;;;10.40;9.30;;;;;;;19.01;87.44;99762.48;130093;1268;108682;-68
2022/08/22 02:29:40;;;;;;;10.90;9.80;;;;;;;18.98;87.55;99766.90;130179;1268;109352;-69
2022/08/22 02:33:00;;;;;;;9.80;8.40;;;;;;;18.96;88.15;99768.25;130190;1268;108859;-69
2022/08/22 02:36:20;;;;;;;9.20;8.20;;;;;;;18.94;87.58;99763.69;130163;1268;108763;-68
2022/08/22 02:39:32;;;;;;;9.30;7.50;;;;;;;18.99;87.21;99761.27;130099;1268;107022;-68
2022/08/22 02:42:43;;;;;;;8.90;8.00;;;;;;;19.08;87.08;99758.95;130270;1268;109166;-68
2022/08/22 02:45:53;;;;;;;8.60;7.80;;;;;;;19.17;86.77;99765.23;130286;1268;108331;-67
2022/08/22 02:49:08;;;;;;;7.90;7.10;;;;;;;19.26;86.52;99763.05;130207;1268;109609;-67
2022/08/22 02:52:18;;;;;;;8.90;8.00;;;;;;;19.33;86.33;99766.52;130199;1268;107404;-68
2022/08/22 02:55:38;;;;;;;8.60;7.70;;;;;;;19.40;86.55;99763.70;130112;1266;107712;-67
2022/08/22 02:58:52;;;;;;;10.10;8.40;;;;;;;19.56;86.48;99762.80;130098;1268;108856;-67
2022/08/22 03:01:58;;;;;;;8.40;7.60;;;;;;;19.66;85.82;99760.52;130109;1268;108853;-67
2022/08/22 03:05:23;;;;;;;11.00;8.70;;;;;;;19.63;85.68;99763.44;130252;1268;108590;-68
2022/08/22 03:08:31;;;;;;;9.10;8.10;;;;;;;19.59;85.67;99765.73;130201;1268;108614;-69
2022/08/22 03:11:43;;;;;;;8.20;7.10;;;;;;;19.54;85.72;99765.11;130153;1267;108728;-68
2022/08/22 03:14:59;;;;;;;8.60;7.70;;;;;;;19.45;85.71;99769.60;130169;1268;108501;-68
2022/08/22 03:18:20;;;;;;;8.40;7.20;;;;;;;19.44;85.78;99766.96;130210;1268;108882;-68
2022/08/22 03:21:31;;;;;;;8.80;7.90;;;;;;;19.38;85.58;99768.02;130169;1268;108957;-68
2022/08/22 03:24:47;;;;;;;9.40;8.50;;;;;;;19.33;85.61;99774.76;130205;1268;108763;-68
2022/08/22 03:28:00;;;;;;;7.90;6.40;;;;;;;19.33;85.82;99772.35;130231;1268;108488;-68
2022/08/22 03:31:14;;;;;;;8.60;7.70;;;;;;;19.29;85.60;99775.80;130221;1268;108692;-68
2022/08/22 03:34:25;;;;;;;10.20;8.00;;;;;;;19.22;85.69;99777.05;130260;1267;108781;-68
2022/08/22 03:37:42;;;;;;;9.70;7.80;;;;;;;19.21;85.62;99778.48;130247;1268;108526;-69
2022/08/22 03:41:02;;;;;;;11.10;7.80;;;;;;;19.25;85.66;99783.70;130251;1268;108716;-68
2022/08/22 03:44:38;;;;;;;8.70;6.70;;;;;;;19.28;85.52;99783.55;130293;1268;108768;-68
2022/08/22 03:48:03;;;;;;;7.70;6.50;;;;;;;19.29;85.17;99784.94;130226;1268;108731;-68
2022/08/22 03:51:40;;;;;;;7.40;6.60;;;;;;;19.29;85.18;99784.99;130216;1267;108673;-68
2022/08/22 03:55:15;;;;;;;10.60;8.60;;;;;;;19.29;85.18;99788.83;130213;1268;108739;-68
2022/08/22 03:58:51;;;;;;;9.70;8.70;;;;;;;19.18;85.38;99792.41;129955;1268;108678;-69
2022/08/22 04:02:24;;;;;;;9.10;8.00;;;;;;;19.21;85.25;99797.04;130172;1268;108852;-69
2022/08/22 04:06:05;;;;;;;8.30;6.60;;;;;;;19.27;84.99;99795.70;130272;1267;108508;-68
2022/08/22 04:09:31;;;;;;;10.20;9.20;;;;;;;19.37;84.86;99800.13;130269;1268;107543;-68
2022/08/22 04:12:58;;;;;;;8.20;7.40;;;;;;;19.41;84.64;99803.04;130312;1268;108780;-66
2022/08/22 04:16:46;;;;;;;10.50;9.40;;;;;;;19.43;84.38;99807.21;130193;1268;109606;-67
2022/08/22 04:20:13;;;;;;;10.80;9.70;;;;;;;19.31;84.58;99814.60;129954;1268;110360;-67
2022/08/22 04:23:45;;;;;;;8.40;7.60;;;;;;;19.19;84.95;99815.28;130237;1268;107561;-67
2022/08/22 04:26:56;;;;;;;8.70;7.90;;;;;;;19.19;85.00;99813.98;130175;1267;109457;-67
2022/08/22 04:30:09;;;;;;;9.50;8.40;;;;;;;19.26;85.23;99813.69;130205;1268;107389;-68
2022/08/22 04:33:22;;;;;;;8.50;7.70;;;;;;;19.32;84.86;99815.67;130257;1267;108792;-68
2022/08/22 04:36:32;;;;;;;10.10;8.50;;;;;;;19.36;85.00;99820.67;130237;1268;108224;-68
2022/08/22 04:39:48;;;;;;;9.20;8.30;;;;;;;19.40;84.76;99817.54;130221;1267;106972;-69
2022/08/22 04:42:58;;;;;;;9.00;7.70;;;;;;;19.36;84.84;99820.05;130119;1267;109105;-67
2022/08/22 04:46:12;;;;;;;8.90;7.20;;;;;;;19.29;85.03;99821.83;130103;1268;109344;-68
2022/08/22 04:49:24;;;;;;;9.00;7.60;;;;;;;19.30;85.22;99819.85;130113;1268;108523;-68
2022/08/22 04:52:43;;;;;;;9.70;7.40;;;;;;;19.35;85.06;99823.48;130188;1267;108654;-67
2022/08/22 04:55:59;;;;;;;9.00;7.80;;;;;;;19.47;85.18;99823.16;130107;1268;108576;-67
2022/08/22 04:59:10;;;;;;;9.40;7.70;;;;;;;19.59;85.19;99826.05;130034;1271;108791;-66
2022/08/22 05:02:23;;;;;;;12.80;7.30;;;;;;;19.70;84.86;99831.03;130245;1271;107493;-67
2022/08/22 05:05:39;;;;;;;8.60;7.70;;;;;;;19.78;84.79;99832.06;130154;1270;108741;-67
2022/08/22 05:08:48;;;;;;;8.60;7.70;;;;;;;19.82;84.79;99839.97;130124;1271;108653;-68
2022/08/22 05:11:59;;;;;;;8.60;7.60;;;;;;;19.88;84.75;99843.29;130126;1271;108651;-67
2022/08/22 05:15:13;;;;;;;7.90;7.10;;;;;;;19.98;84.65;99854.34;130179;1271;107669;-68
2022/08/22 05:18:24;;;;;;;9.30;6.90;;;;;;;20.11;84.64;99855.25;130019;1271;108573;-67
2022/08/22 05:21:34;;;;;;;7.90;7.20;;;;;;;20.25;84.67;99859.96;130075;1270;109761;-68
2022/08/22 05:24:45;;;;;;;9.70;7.60;;;;;;;20.41;83.78;99858.35;130288;1271;108777;-67
2022/08/22 05:27:53;;;;;;;8.60;7.70;;;;;;;20.52;84.08;99854.92;130124;1270;108873;-68
2022/08/22 05:30:59;;;;;;;8.50;7.60;;;;;;;20.55;83.83;99857.39;130318;1271;107631;-67
2022/08/22 05:34:10;;;;;;;7.90;7.10;;;;;;;20.53;83.66;99854.95;130159;1270;107385;-69
2022/08/22 05:37:19;;;;;;;7.40;6.70;;;;;;;20.50;83.86;99852.91;130060;1271;107689;-67
2022/08/22 05:40:27;;;;;;;9.80;7.50;;;;;;;20.50;84.01;99853.91;130129;1271;108569;-66
2022/08/22 05:43:37;;;;;;;7.90;7.10;;;;;;;20.52;83.93;99853.46;130176;1270;107636;-67
2022/08/22 05:46:46;;;;;;;9.70;7.60;;;;;;;20.66;83.88;99852.77;130077;1271;108716;-67
2022/08/22 05:49:58;;;;;;;9.20;7.60;;;;;;;20.71;83.69;99851.58;130212;1270;107053;-67
2022/08/22 05:53:07;;;;;;;8.00;7.20;;;;;;;20.73;83.39;99854.56;129617;1270;1333750;-69
2022/08/22 05:56:19;;;;;;;7.40;6.70;;;;;;;20.78;83.65;99861.52;130073;1271;107955;-67
2022/08/22 05:59:31;;;;;;;7.70;7.00;;;;;;;20.91;83.44;99862.09;130074;1270;108663;-67
2022/08/22 06:02:52;;;;;;;9.50;7.40;;;;;;;20.97;83.13;99861.31;130196;1269;108676;-67
2022/08/22 06:06:03;;;;;;;9.20;7.30;;;;;;;20.96;83.14;99868.58;130122;1271;108794;-68
2022/08/22 06:09:17;;;;;;;8.30;7.30;;;;;;;20.90;82.60;99869.11;129944;1271;109467;-67
2022/08/22 06:12:31;;;;;;;7.50;6.80;;;;;;;20.86;82.94;99871.31;129946;1271;109509;-66
2022/08/22 06:15:45;;;;;;;7.70;6.90;;;;;;;20.80;82.86;99867.22;129875;1271;109543;-67
2022/08/22 06:18:52;;;;;;;8.50;6.80;;;;;;;20.89;83.25;99869.40;129936;1271;108428;-67
2022/08/22 06:21:58;;;;;;;7.60;6.80;;;;;;;21.04;83.10;99868.52;129891;1271;108899;-68
2022/08/22 06:25:11;;;;;;;8.80;7.90;;;;;;;21.25;82.87;99870.23;129890;1271;109268;-67
2022/08/22 06:28:22;;;;;;;8.40;7.50;;;;;;;21.24;82.30;99876.92;130011;1270;108656;-67
2022/08/22 06:31:28;;;;;;;;;;;;;;;21.22;82.42;99876.29;129995;1271;107117;-69
2022/08/22 06:34:39;;;;;;;7.60;6.20;;;;;;;21.27;82.63;99875.33;129897;1271;110418;-69
2022/08/22 06:37:47;;;;;;;9.70;7.50;;;;;;;21.43;82.41;99869.75;129852;1271;108683;-69
2022/08/22 06:40:54;;;;;;;10.20;7.50;;;;;;;21.48;81.77;99873.48;129798;1271;108726;-71
2022/08/22 06:44:02;;;;;;;7.80;7.00;;;;;;;21.45;81.09;99874.45;130142;1271;108774;-69
2022/08/22 06:47:13;;;;;;;9.90;6.80;;;;;;;21.50;81.99;99875.20;129875;1271;109496;-68
2022/08/22 06:50:24;;;;;;;8.20;7.00;;;;;;;21.67;81.68;99877.14;129968;1271;107724;-71
2022/08/22 06:53:35;;;;;;;8.20;6.80;;;;;;;21.68;81.50;99873.43;129955;1270;108672;-72
2022/08/22 06:56:44;;;;;;;8.60;6.90;;;;;;;21.71;80.64;99877.14;130032;1271;108625;-72
2022/08/22 06:59:51;;;;;;;9.40;7.30;;;;;;;21.66;80.83;99874.90;129952;1271;108052;-70
2022/08/22 07:03:00;;;;;;;9.50;7.10;;;;;;;21.65;80.79;99874.33;130077;1271;108612;-70
2022/08/22 07:06:11;;;;;;;11.00;7.30;;;;;;;21.70;81.10;99877.21;130129;1270;108803;-69
2022/08/22 07:09:23;;;;;;;8.10;7.10;;;;;;;21.84;80.78;99882.39;129953;1270;109785;-70
2022/08/22 07:12:32;;;;;;;7.40;6.40;;;;;;;21.99;80.98;99875.31;130170;1271;109062;-71
2022/08/22 07:15:40;;;;;;;7.80;7.00;;;;;;;22.15;80.04;99873.75;130008;1271;108773;-68
2022/08/22 07:18:50;;;;;;;9.40;7.40;;;;;;;22.25;80.09;99877.42;130045;1271;108746;-71
2022/08/22 07:21:56;;;;;;;9.10;7.10;;;;;;;22.39;79.67;99878.29;130215;1271;108469;-71
2022/08/22 07:25:07;;;;;;;7.60;6.90;;;;;;;22.51;80.04;99881.56;130188;1271;107329;-72
2022/08/22 07:28:23;;;;;;;7.90;7.10;;;;;;;22.65;79.62;99878.96;130160;1270;108878;-71
2022/08/22 07:31:37;;;;;;;7.90;7.10;;;;;;;22.74;79.18;99883.12;130131;1271;108985;-70
2022/08/22 07:34:52;;;;;;;8.30;6.70;;;;;;;22.78;77.44;99885.35;130053;1271;109032;-70
2022/08/22 07:38:08;;;;;;;8.70;7.20;;;;;;;22.70;78.12;99887.27;129981;1269;107835;-71
2022/08/22 07:41:19;;;;;;;7.90;7.10;;;;;;;22.77;78.78;99883.92;130126;1271;108797;-71
2022/08/22 07:44:31;;;;;;;7.70;6.90;;;;;;;22.92;78.21;99890.45;130189;1271;109003;-71
2022/08/22 07:47:56;;;;;;;7.70;6.60;;;;;;;23.09;78.44;99882.09;130008;1271;107071;-70
2022/08/22 07:51:08;;;;;;;7.50;6.40;;;;;;;23.21;78.30;99884.31;130021;1271;108773;-71
2022/08/22 07:54:21;;;;;;;8.20;7.30;;;;;;;23.30;77.64;99884.98;130196;1270;108707;-70
2022/08/22 07:57:33;;;;;;;7.80;6.80;;;;;;;23.30;76.99;99887.08;130064;1271;108691;-72
2022/08/22 08:00:45;;;;;;;9.00;7.10;;;;;;;23.36;77.23;99891.92;130213;1271;109430;-75
2022/08/22 08:03:55;;;;;;;8.20;7.30;;;;;;;23.39;77.12;99893.39;130350;1271;108402;-70
2022/08/22 08:07:05;;;;;;;10.30;7.60;;;;;;;23.50;77.20;99890.70;130040;1270;108629;-71
2022/08/22 08:10:15;;;;;;;7.30;6.60;;;;;;;23.59;76.55;99897.15;130067;1270;109526;-71
2022/08/22 08:13:25;;;;;;;7.10;6.40;;;;;;;23.62;76.29;99893.76;130140;1271;108254;-70
2022/08/22 08:16:45;;;;;;;10.00;6.80;;;;;;;23.80;76.65;99891.71;130030;1271;108933;-72
2022/08/22 08:19:51;;;;;;;7.70;6.60;;;;;;;24.09;75.45;99891.77;130104;1270;108947;-70
2022/08/22 08:22:59;;;;;;;9.40;7.40;;;;;;;24.26;74.62;99883.77;130093;1271;108735;-70
2022/08/22 08:26:09;;;;;;;8.00;7.20;;;;;;;24.48;75.08;99889.08;130024;1270;108977;-68
2022/08/22 08:29:18;;;;;;;7.80;7.00;;;;;;;24.67;74.20;99893.42;129947;1270;108690;-71
2022/08/22 08:32:35;;;;;;;13.20;7.00;;;;;;;24.87;74.79;99887.45;130031;1271;108498;-69
2022/08/22 08:35:47;;;;;;;9.60;7.00;;;;;;;25.01;72.83;99885.31;130083;1271;108808;-69
2022/08/22 08:39:03;;;;;;;9.00;6.90;;;;;;;24.93;72.59;99889.20;130291;1270;107542;-68
2022/08/22 08:43:25;;;;;;;9.20;7.60;;;;;;;25.02;73.38;99891.05;130035;1270;109783;-66
2022/08/22 08:46:39;;;;;;;7.70;6.90;;;;;;;25.18;72.75;99889.84;130000;1271;107263;-70
2022/08/22 08:50:10;;;;;;;9.30;7.20;;;;;;;25.21;71.51;99888.95;130084;1271;109180;-68
2022/08/22 08:53:42;;;;;;;9.50;6.80;;;;;;;25.15;70.79;99891.94;130061;1271;109554;-67
2022/08/22 08:56:58;;;;;;;9.50;7.50;;;;;;;25.09;70.53;99890.57;130070;1271;108654;-68
2022/08/22 09:00:13;;;;;;;8.60;6.90;;;;;;;25.11;71.80;99887.38;130201;1271;107747;-72
2022/08/22 09:03:44;;;;;;;8.50;7.20;;;;;;;25.23;71.39;99887.12;130728;1269;107982;-71
2022/08/22 09:07:05;;;;;;;8.40;6.70;;;;;;;25.21;70.81;99886.48;130202;1271;108702;-72
2022/08/22 09:10:31;;;;;;;7.70;6.90;;;;;;;25.23;71.15;99884.63;130200;1271;108694;-70
2022/08/22 09:13:48;;;;;;;7.50;6.70;;;;;;;25.28;70.69;99885.75;130037;1271;108718;-70
2022/08/22 09:17:15;;;;;;;9.40;6.70;;;;;;;25.37;69.74;99891.68;129982;1271;108692;-70
2022/08/22 09:20:46;;;;;;;8.50;6.80;;;;;;;25.28;69.60;99889.31;130874;1270;108607;-70
2022/08/22 09:24:22;;;;;;;8.70;6.40;;;;;;;25.19;69.71;99889.96;130070;1270;108719;-69
2022/08/22 09:27:35;;;;;;;7.20;6.40;;;;;;;25.29;69.88;99892.92;130216;1270;108599;-69
2022/08/22 09:31:03;;;;;;;8.70;6.70;;;;;;;25.46;69.92;99888.42;130124;1271;108619;-70
2022/08/22 09:34:17;;;;;;;10.40;6.80;;;;;;;25.57;69.04;99890.27;130055;1271;109460;-70
2022/08/22 09:37:40;;;;;;;9.70;6.80;;;;;;;25.51;68.65;99889.44;130072;1271;108782;-69
2022/08/22 09:40:52;;;;;;;8.30;6.40;;;;;;;25.33;68.44;99887.27;130006;1271;108695;-71
2022/08/22 09:44:14;;;;;;;7.70;6.70;;;;;;;25.29;69.30;99888.55;129949;1271;108714;-69
2022/08/22 09:47:26;;;;;;;10.10;6.80;;;;;;;25.28;69.18;99886.92;130013;1271;108862;-69
2022/08/22 09:50:44;;;;;;;7.40;6.40;;;;;;;25.27;69.24;99886.36;129714;1271;109000;-70
2022/08/22 09:54:08;;;;;;;9.00;6.30;;;;;;;25.30;69.09;99883.21;129999;1271;108677;-71
2022/08/22 09:57:34;;;;;;;8.40;6.20;;;;;;;25.32;68.38;99880.88;129952;1271;108657;-69
2022/08/22 10:00:46;;;;;;;7.80;6.40;;;;;;;25.37;68.77;99879.49;129975;1271;108666;-69
2022/08/22 10:04:28;;;;;;;8.40;6.70;;;;;;;25.29;68.62;99883.58;129937;1271;108864;-68
2022/08/22 10:07:53;;;;;;;7.90;6.80;;;;;;;25.12;68.08;99884.66;129960;1270;108817;-69
2022/08/22 10:11:24;;;;;;;10.90;6.80;;;;;;;24.91;68.50;99886.40;129541;1271;108540;-71
2022/08/22 10:14:39;;;;;;;8.60;6.90;;;;;;;24.86;68.20;99884.73;129872;1271;108682;-69
2022/08/22 10:17:57;;;;;;;7.20;6.50;;;;;;;24.82;68.59;99885.06;129990;1271;108657;-68
2022/08/22 10:21:11;;;;;;;8.40;7.10;;;;;;;24.80;68.59;99879.80;129924;1271;108835;-70
2022/08/22 10:24:28;;;;;;;7.30;6.50;;;;;;;24.79;68.27;99876.41;129925;1271;109749;-70
2022/08/22 10:27:48;;;;;;;8.20;7.20;;;;;;;24.77;68.21;99885.60;129947;1271;108571;-71
2022/08/22 10:31:07;;;;;;;8.00;6.70;;;;;;;24.74;68.08;99887.42;129978;1270;108527;-70
2022/08/22 10:34:18;;;;;;;9.00;7.00;;;;;;;24.70;67.87;99885.86;130025;1271;108706;-71
2022/08/22 10:37:30;;;;;;;8.90;6.70;;;;;;;24.80;68.12;99884.70;129988;1271;109166;-69
2022/08/22 10:40:41;;;;;;;10.30;6.60;;;;;;;24.94;67.97;99879.39;130041;1271;109151;-72
2022/08/22 10:43:49;;;;;;;;;;;;;;;25.12;68.06;99879.08;130032;1271;107436;-71
2022/08/22 10:47:00;;;;;;;8.10;6.40;;;;;;;25.35;67.63;99880.52;130082;1271;106646;-69
2022/08/22 10:50:15;;;;;;;10.50;6.90;;;;;;;25.55;67.01;99877.57;130094;1270;108699;-69
2022/08/22 10:53:33;;;;;;;7.90;6.60;;;;;;;25.62;66.20;99875.66;129937;1270;108672;-70
2022/08/22 10:56:42;;;;;;;8.80;7.00;;;;;;;25.76;66.77;99874.39;130008;1270;106903;-68
2022/08/22 10:59:53;;;;;;;8.20;6.50;;;;;;;25.95;66.40;99874.54;130138;1271;108849;-68
2022/08/22 11:03:11;;;;;;;11.70;6.80;;;;;;;26.03;66.00;99877.86;130012;1271;109062;-69
2022/08/22 11:06:25;;;;;;;8.20;7.00;;;;;;;26.05;65.88;99876.84;129954;1271;108593;-69
2022/08/22 11:09:38;;;;;;;11.20;7.10;;;;;;;26.18;65.87;99874.93;129928;1271;107244;-69
2022/08/22 11:12:49;;;;;;;9.40;6.60;;;;;;;26.23;65.75;99867.14;129984;1271;110418;-69
2022/08/22 11:16:03;;;;;;;8.80;6.30;;;;;;;26.33;65.14;99873.20;129946;1271;109012;-68
2022/08/22 11:19:27;;;;;;;7.60;6.10;;;;;;;26.38;65.07;99873.11;129940;1271;108814;-70
2022/08/22 11:22:47;;;;;;;10.00;7.20;;;;;;;26.46;64.99;99873.80;129964;1270;108799;-72
2022/08/22 11:26:03;;;;;;;8.70;7.00;;;;;;;26.42;64.59;99870.33;130067;1271;107673;-70
2022/08/22 11:29:34;;;;;;;10.50;7.20;;;;;;;26.29;63.53;99876.30;129895;1271;108725;-70
2022/08/22 11:32:49;;;;;;;9.40;6.70;;;;;;;26.05;63.22;99878.31;130033;1271;109499;-70
2022/08/22 11:36:03;;;;;;;9.30;6.90;;;;;;;25.91;63.93;99878.54;129988;1271;108698;-71
2022/08/22 11:39:23;;;;;;;10.40;6.70;;;;;;;25.86;64.40;99870.04;129972;1271;108802;-70
2022/08/22 11:42:36;;;;;;;14.00;7.10;;;;;;;26.02;64.21;99876.77;129941;1271;108677;-70
2022/08/22 11:45:45;;;;;;;7.60;6.30;;;;;;;26.11;64.52;99872.88;130117;1271;108966;-71
2022/08/22 11:49:06;;;;;;;11.10;6.70;;;;;;;26.29;64.15;99875.44;130071;1271;108584;-71
2022/08/22 11:52:27;;;;;;;6.70;5.80;;;;;;;26.43;64.10;99876.69;131090;1271;108864;-70
2022/08/22 11:55:35;;;;;;;;;;;;;;;26.46;63.03;99878.50;131327;1271;108865;-71
2022/08/22 11:58:57;;;;;;;6.60;5.50;;;;;;;26.43;62.96;99877.67;130100;1271;108731;-70
2022/08/22 12:02:06;;;;;;;6.40;5.50;;;;;;;26.39;62.93;99874.77;130240;1271;108689;-71
2022/08/22 12:05:18;;;;;;;6.60;5.50;;;;;;;26.46;63.18;99870.80;130109;1271;108845;-72
2022/08/22 12:09:03;;;;;;;11.10;6.40;;;;;;;26.48;63.84;99866.25;130064;1271;109627;-71
2022/08/22 12:12:21;;;;;;;7.10;6.10;;;;;;;26.55;62.68;99865.17;130016;1271;109351;-70
2022/08/22 12:15:34;;;;;;;7.50;6.00;;;;;;;26.47;62.76;99865.81;130008;1271;107580;-70
2022/08/22 12:18:55;;;;;;;5.70;5.20;;;;;;;26.39;62.41;99867.42;130146;1271;108121;-70
2022/08/22 12:22:59;;;;;;;6.10;5.30;;;;;;;26.42;62.75;99868.14;130101;1271;108947;-70
2022/08/22 12:26:14;;;;;;;6.30;5.00;;;;;;;26.45;62.46;99865.09;129653;1271;108823;-71
2022/08/22 12:29:35;;;;;;;6.20;4.60;;;;;;;26.51;60.70;99867.02;130106;1271;109465;-71
2022/08/22 12:33:12;;;;;;;7.80;4.40;;;;;;;26.63;61.53;99871.27;130056;1271;108600;-71
2022/08/22 12:36:36;;;;;;;5.20;4.70;;;;;;;26.72;61.42;99867.77;130264;1270;108724;-71
2022/08/22 12:40:11;;;;;;;8.80;4.90;;;;;;;26.72;61.74;99869.64;130301;1271;109035;-71
2022/08/22 12:43:37;;;;;;;5.40;4.90;;;;;;;26.64;60.93;99869.67;130195;1270;109075;-70
2022/08/22 12:47:01;;;;;;;5.60;5.10;;;;;;;26.53;61.31;99870.87;130155;1271;108646;-71
2022/08/22 12:50:19;;;;;;;5.80;5.30;;;;;;;26.47;61.25;99871.34;130034;1271;108691;-70
2022/08/22 12:53:51;;;;;;;6.00;5.10;;;;;;;26.43;61.62;99865.52;130071;1270;109179;-70
2022/08/22 12:57:04;;;;;;;7.00;5.00;;;;;;;26.40;61.54;99867.27;129965;1271;107216;-70
2022/08/22 13:00:33;;;;;;;7.00;5.30;;;;;;;26.37;61.73;99863.16;130089;1271;108849;-70
2022/08/22 13:03:45;;;;;;;6.20;5.60;;;;;;;26.29;61.72;99864.44;130161;1271;108937;-70
2022/08/22 13:06:58;;;;;;;6.60;5.20;;;;;;;26.22;61.75;99862.48;130149;1271;107712;-70
2022/08/22 13:10:27;;;;;;;7.30;5.50;;;;;;;26.14;61.63;99864.86;130031;1271;108717;-70
2022/08/22 13:13:37;;;;;;;6.10;5.50;;;;;;;26.04;62.08;99869.78;130101;1270;108653;-70
2022/08/22 13:16:48;;;;;;;7.20;5.20;;;;;;;25.92;61.67;99868.05;129754;1271;108753;-71
2022/08/22 13:20:00;;;;;;;6.50;5.40;;;;;;;25.80;62.12;99862.72;130075;1271;107716;-68
2022/08/22 13:23:15;;;;;;;6.50;5.90;;;;;;;25.74;61.94;99862.90;130084;1271;108785;-67
2022/08/22 13:26:22;;;;;;;6.70;6.00;;;;;;;25.69;62.10;99863.13;130074;1271;108563;-67
2022/08/22 13:29:35;;;;;;;7.80;6.30;;;;;;;25.64;62.16;99859.06;130136;1271;107532;-67
2022/08/22 13:32:45;;;;;;;8.10;7.30;;;;;;;25.58;62.55;99856.50;130183;1271;108973;-69
2022/08/22 13:35:53;;;;;;;9.80;6.50;;;;;;;25.52;62.47;99858.70;130108;1270;110310;-69
2022/08/22 13:39:05;;;;;;;12.00;6.30;;;;;;;25.52;62.55;99854.76;130068;1271;109538;-69
2022/08/22 13:42:18;;;;;;;8.40;6.10;;;;;;;25.65;62.72;99856.00;130123;1270;109754;-69
2022/08/22 13:45:27;;;;;;;10.70;6.60;;;;;;;25.81;62.51;99856.93;130062;1270;108707;-69
2022/08/22 13:48:48;;;;;;;10.30;5.80;;;;;;;25.98;62.27;99860.06;130024;1271;108729;-70
2022/08/22 13:52:06;;;;;;;9.60;6.60;;;;;;;26.07;62.19;99867.88;130149;1271;108704;-71
2022/08/22 13:55:18;;;;;;;8.70;6.20;;;;;;;26.20;62.18;99870.79;130222;1271;108579;-71
2022/08/22 13:58:37;;;;;;;6.80;6.00;;;;;;;26.35;61.73;99871.23;130155;1271;108781;-72
2022/08/22 14:01:50;;;;;;;7.60;6.00;;;;;;;26.50;61.10;99869.71;130150;1271;108831;-72
2022/08/22 14:04:59;;;;;;;7.70;6.10;;;;;;;26.61;60.67;99865.23;130197;1271;108695;-71
2022/08/22 14:08:16;;;;;;;6.60;5.60;;;;;;;26.66;60.54;99860.59;130213;1271;107257;-72
2022/08/22 14:11:33;;;;;;;7.90;5.80;;;;;;;26.74;60.41;99856.89;130272;1271;108695;-72
2022/08/22 14:14:43;;;;;;;7.40;5.70;;;;;;;26.77;60.61;99858.44;130330;1271;107686;-72
2022/08/22 14:17:53;;;;;;;6.60;5.60;;;;;;;26.85;60.44;99853.04;130370;1271;108663;-72
2022/08/22 14:21:24;;;;;;;7.70;6.00;;;;;;;26.86;60.26;99860.59;130184;1271;107836;-72
2022/08/22 14:24:32;;;;;;;8.20;5.00;;;;;;;26.86;60.24;99860.91;130159;1271;108717;-72
2022/08/22 14:27:42;;;;;;;7.40;5.60;;;;;;;26.97;59.81;99863.23;130290;1271;108454;-72
2022/08/22 14:30:57;;;;;;;7.40;5.60;;;;;;;26.98;60.10;99860.55;130193;1271;108482;-71
2022/08/22 14:34:09;;;;;;;10.10;6.00;;;;;;;27.07;60.34;99862.76;130114;1271;109116;-72
2022/08/22 14:37:22;;;;;;;6.40;4.90;;;;;;;27.04;59.52;99863.67;130245;1271;108566;-72
2022/08/22 14:40:33;;;;;;;6.60;5.20;;;;;;;26.97;59.90;99861.98;130146;1270;108789;-71
2022/08/22 14:43:55;;;;;;;5.90;5.00;;;;;;;26.91;59.41;99859.49;130157;1270;109036;-72
2022/08/22 14:47:05;;;;;;;8.00;6.00;;;;;;;26.84;59.33;99859.94;130266;1271;108801;-71
2022/08/22 14:50:28;;;;;;;6.40;5.30;;;;;;;26.79;59.36;99867.09;130151;1271;108689;-73
2022/08/22 14:53:36;;;;;;;7.60;5.90;;;;;;;26.74;59.57;99864.56;130257;1271;110512;-73
2022/08/22 14:56:42;;;;;;;6.40;5.60;;;;;;;26.66;59.44;99870.02;130122;1271;108892;-73
2022/08/22 14:59:52;;;;;;;10.20;6.10;;;;;;;26.57;59.75;99866.84;130121;1271;108478;-72
2022/08/22 15:03:12;;;;;;;11.60;5.90;;;;;;;26.50;59.91;99866.86;130220;1270;108653;-75
2022/08/22 15:06:36;;;;;;;7.70;5.60;;;;;;;26.44;59.75;99865.70;130155;1271;108731;-71